createdAt,value
2023-04-17T00:00:56.059Z,0.20
2023-04-17T00:01:56.123Z,0.27
2023-04-17T00:02:56.266Z,0.34
2023-04-17T00:03:56.391Z,0.24
2023-04-17T00:04:56.368Z,0.20
2023-04-17T00:05:56.256Z,0.14
2023-04-17T00:06:56.301Z,0.31
2023-04-17T00:07:56.360Z,0.38
2023-04-17T00:08:56.425Z,0.21
2023-04-17T00:09:56.490Z,0.30
2023-04-17T00:11:04.600Z,0.25
2023-04-17T00:11:57.553Z,0.30
2023-04-17T00:12:56.575Z,0.71
2023-04-17T00:13:56.580Z,0.18
2023-04-17T00:14:56.613Z,0.25
2023-04-17T00:15:56.647Z,0.20
2023-04-17T00:16:56.682Z,0.27
2023-04-17T00:17:56.666Z,0.27
2023-04-17T00:18:56.650Z,0.27
2023-04-17T00:19:56.683Z,0.44
2023-04-17T00:20:56.847Z,0.50
2023-04-17T00:21:56.672Z,0.23
2023-04-17T00:22:56.690Z,0.24
2023-04-17T00:23:56.707Z,0.25
2023-04-17T00:24:56.722Z,0.40
2023-04-17T00:25:56.729Z,0.37
2023-04-17T00:26:56.734Z,0.47
2023-04-17T00:27:56.746Z,0.21
2023-04-17T00:28:56.781Z,0.21
2023-04-17T00:29:56.852Z,0.20
2023-04-17T00:30:56.921Z,0.28
2023-04-17T00:31:57.029Z,0.12
2023-04-17T00:32:57.086Z,0.17
2023-04-17T00:33:57.086Z,0.12
2023-04-17T00:34:57.124Z,0.37
2023-04-17T00:35:57.143Z,0.22
2023-04-17T00:36:57.155Z,0.22
2023-04-17T00:37:57.190Z,0.25
2023-04-17T00:38:57.234Z,0.35
2023-04-17T00:39:57.301Z,0.25
2023-04-17T00:40:57.348Z,0.22
2023-04-17T00:41:57.394Z,0.25
2023-04-17T00:42:57.450Z,0.28
2023-04-17T00:43:57.487Z,0.42
2023-04-17T00:44:57.556Z,0.27
2023-04-17T00:45:57.622Z,0.38
2023-04-17T00:46:57.609Z,0.19
2023-04-17T00:47:57.693Z,0.19
2023-04-17T00:48:57.708Z,0.31
2023-04-17T00:49:57.771Z,0.28
2023-04-17T00:50:57.822Z,0.34
2023-04-17T00:51:57.870Z,0.33
2023-04-17T00:52:57.918Z,0.21
2023-04-17T00:53:57.975Z,0.19
2023-04-17T00:54:57.989Z,0.28
2023-04-17T00:55:58.025Z,0.20
2023-04-17T00:56:58.050Z,0.22
2023-04-17T00:57:58.062Z,0.17
2023-04-17T00:58:58.122Z,0.19
2023-04-17T00:59:58.142Z,0.30
2023-04-17T01:00:58.220Z,0.39
2023-04-17T01:01:58.280Z,0.18
2023-04-17T01:02:58.478Z,0.21
2023-04-17T01:03:58.431Z,0.20
2023-04-17T01:04:58.375Z,0.26
2023-04-17T01:05:58.435Z,0.30
2023-04-17T01:06:58.480Z,0.38
2023-04-17T01:07:58.502Z,0.20
2023-04-17T01:08:58.564Z,0.24
2023-04-17T01:09:58.590Z,0.24
2023-04-17T01:10:58.625Z,0.26
2023-04-17T01:11:58.648Z,0.11
2023-04-17T01:12:58.664Z,0.30
2023-04-17T01:13:58.705Z,0.34
2023-04-17T01:14:58.736Z,0.23
2023-04-17T01:15:58.730Z,0.18
2023-04-17T01:16:58.764Z,0.22
2023-04-17T01:17:58.807Z,0.45
2023-04-17T01:18:58.806Z,0.28
2023-04-17T01:19:58.866Z,0.18
2023-04-17T01:20:58.904Z,0.26
2023-04-17T01:21:58.914Z,0.28
2023-04-17T01:22:58.974Z,0.32
2023-04-17T01:23:58.983Z,0.21
2023-04-17T01:24:59.025Z,0.21
2023-04-17T01:25:59.052Z,0.16
2023-04-17T01:26:59.088Z,0.37
2023-04-17T01:27:59.121Z,0.37
2023-04-17T01:28:59.165Z,0.23
2023-04-17T01:29:59.225Z,0.31
2023-04-17T01:30:59.299Z,0.13
2023-04-17T01:31:59.341Z,0.20
2023-04-17T01:32:59.425Z,0.25
2023-04-17T01:33:59.409Z,0.07
2023-04-17T01:34:59.515Z,0.22
2023-04-17T01:35:59.543Z,0.16
2023-04-17T01:36:59.621Z,0.28
2023-04-17T01:37:59.670Z,0.28
2023-04-17T01:38:59.754Z,0.31
2023-04-17T01:39:59.804Z,0.15
2023-04-17T01:40:59.858Z,0.36
2023-04-17T01:41:59.871Z,0.24
2023-04-17T01:42:59.871Z,0.52
2023-04-17T01:43:59.890Z,0.36
2023-04-17T01:44:59.933Z,0.15
2023-04-17T01:46:00.019Z,0.22
2023-04-17T01:46:59.971Z,0.18
2023-04-17T01:48:00.005Z,0.25
2023-04-17T01:48:59.977Z,0.14
2023-04-17T01:49:59.997Z,0.17
2023-04-17T01:51:00.010Z,0.23
2023-04-17T01:52:00.021Z,0.21
2023-04-17T01:53:00.049Z,0.11
2023-04-17T01:54:00.056Z,0.30
2023-04-17T01:55:00.127Z,0.22
2023-04-17T01:56:00.125Z,0.19
2023-04-17T01:57:00.119Z,0.37
2023-04-17T01:58:00.141Z,0.13
2023-04-17T01:59:00.128Z,0.31
2023-04-17T02:00:00.176Z,0.16
2023-04-17T02:01:00.178Z,0.36
2023-04-17T02:02:00.304Z,0.26
2023-04-17T02:03:00.363Z,0.14
2023-04-17T02:04:00.463Z,0.24
2023-04-17T02:05:00.272Z,0.36
2023-04-17T02:06:00.278Z,0.21
2023-04-17T02:07:00.356Z,0.28
2023-04-17T02:08:00.319Z,0.24
2023-04-17T02:09:00.333Z,0.14
2023-04-17T02:10:00.359Z,0.11
2023-04-17T02:11:00.357Z,0.22
2023-04-17T02:12:00.367Z,0.26
2023-04-17T02:13:00.379Z,0.28
2023-04-17T02:14:00.398Z,0.24
2023-04-17T02:15:00.420Z,0.46
2023-04-17T02:16:00.503Z,0.23
2023-04-17T02:17:00.443Z,0.28
2023-04-17T02:18:00.524Z,0.16
2023-04-17T02:19:00.480Z,0.26
2023-04-17T02:20:00.500Z,0.15
2023-04-17T02:21:00.513Z,0.30
2023-04-17T02:22:00.545Z,0.49
2023-04-17T02:23:00.580Z,0.18
2023-04-17T02:24:00.581Z,0.21
2023-04-17T02:25:00.593Z,0.19
2023-04-17T02:26:00.613Z,0.14
2023-04-17T02:27:00.627Z,0.27
2023-04-17T02:28:00.655Z,0.13
2023-04-17T02:29:00.709Z,0.36
2023-04-17T02:30:00.693Z,0.22
2023-04-17T02:31:00.746Z,0.16
2023-04-17T02:32:00.720Z,0.21
2023-04-17T02:33:00.811Z,0.25
2023-04-17T02:34:00.750Z,0.12
2023-04-17T02:35:00.790Z,0.11
2023-04-17T02:36:00.831Z,0.22
2023-04-17T02:37:00.819Z,0.24
2023-04-17T02:38:00.845Z,0.38
2023-04-17T02:39:00.867Z,0.29
2023-04-17T02:40:00.877Z,0.39
2023-04-17T02:41:00.899Z,0.17
2023-04-17T02:42:00.907Z,0.18
2023-04-17T02:43:00.926Z,0.27
2023-04-17T02:44:00.968Z,0.18
2023-04-17T02:45:00.995Z,0.17
2023-04-17T02:46:01.022Z,0.30
2023-04-17T02:47:01.094Z,0.06
2023-04-17T02:48:01.131Z,0.24
2023-04-17T02:49:01.091Z,0.20
2023-04-17T02:50:01.132Z,0.05
2023-04-17T02:51:01.142Z,0.36
2023-04-17T02:52:01.187Z,0.30
2023-04-17T02:53:01.189Z,0.20
2023-04-17T02:54:01.202Z,0.25
2023-04-17T02:55:01.225Z,0.30
2023-04-17T02:56:01.279Z,0.21
2023-04-17T02:57:01.325Z,0.34
2023-04-17T02:58:01.448Z,0.19
2023-04-17T02:59:01.335Z,0.19
2023-04-17T03:00:01.365Z,0.35
2023-04-17T03:01:01.521Z,0.37
2023-04-17T03:02:01.453Z,0.29
2023-04-17T03:03:01.617Z,0.43
2023-04-17T03:04:01.667Z,0.43
2023-04-17T03:05:01.499Z,0.56
2023-04-17T03:06:01.525Z,0.49
2023-04-17T03:07:01.588Z,0.40
2023-04-17T03:08:01.563Z,0.44
2023-04-17T03:09:01.588Z,0.64
2023-04-17T03:10:01.701Z,0.40
2023-04-17T03:11:01.678Z,0.50
2023-04-17T03:12:01.761Z,0.39
2023-04-17T03:13:01.763Z,0.63
2023-04-17T03:14:01.788Z,0.61
2023-04-17T03:15:01.811Z,0.62
2023-04-17T03:16:01.912Z,0.63
2023-04-17T03:17:01.887Z,0.45
2023-04-17T03:18:01.961Z,0.53
2023-04-17T03:19:02.009Z,0.47
2023-04-17T03:20:02.005Z,0.80
2023-04-17T03:21:02.104Z,0.52
2023-04-17T03:22:02.113Z,0.48
2023-04-17T03:23:02.154Z,0.47
2023-04-17T03:24:02.260Z,0.46
2023-04-17T03:25:02.318Z,0.66
2023-04-17T03:26:02.297Z,0.64
2023-04-17T03:27:02.366Z,0.90
2023-04-17T03:28:02.420Z,0.58
2023-04-17T03:29:02.471Z,0.75
2023-04-17T03:30:02.529Z,0.55
2023-04-17T03:31:02.608Z,0.59
2023-04-17T03:32:02.783Z,0.78
2023-04-17T03:33:02.917Z,0.74
2023-04-17T03:34:02.784Z,0.41
2023-04-17T03:35:02.850Z,0.63
2023-04-17T03:36:02.946Z,0.44
2023-04-17T03:37:02.999Z,0.71
2023-04-17T03:38:03.067Z,0.75
2023-04-17T03:39:03.130Z,0.58
2023-04-17T03:40:03.190Z,0.71
2023-04-17T03:41:03.264Z,0.59
2023-04-17T03:42:03.346Z,0.74
2023-04-17T03:43:03.435Z,0.43
2023-04-17T03:44:03.475Z,0.56
2023-04-17T03:45:03.567Z,0.71
2023-04-17T03:46:03.673Z,0.61
2023-04-17T03:47:03.719Z,0.74
2023-04-17T03:48:03.865Z,0.72
2023-04-17T03:49:03.877Z,0.64
2023-04-17T03:50:03.960Z,0.72
2023-04-17T03:51:04.039Z,0.60
2023-04-17T03:52:04.121Z,0.72
2023-04-17T03:53:04.205Z,0.86
2023-04-17T03:54:04.285Z,0.53
2023-04-17T03:55:04.376Z,0.75
2023-04-17T03:56:04.456Z,0.66
2023-04-17T03:57:04.547Z,0.77
2023-04-17T03:58:04.623Z,0.73
2023-04-17T03:59:04.705Z,1.10
2023-04-17T04:00:04.782Z,1.14
2023-04-17T04:01:04.863Z,0.68
2023-04-17T04:02:05.004Z,0.90
2023-04-17T04:03:05.373Z,0.84
2023-04-17T04:04:05.312Z,1.05
2023-04-17T04:05:05.263Z,1.12
2023-04-17T04:06:05.227Z,0.79
2023-04-17T04:07:05.260Z,0.88
2023-04-17T04:08:05.263Z,0.85
2023-04-17T04:09:05.294Z,1.04
2023-04-17T04:10:05.302Z,0.80
2023-04-17T04:11:05.330Z,0.98
2023-04-17T04:12:05.350Z,1.07
2023-04-17T04:13:05.363Z,0.97
2023-04-17T04:14:05.367Z,0.98
2023-04-17T04:15:05.444Z,1.35
2023-04-17T04:16:05.586Z,1.21
2023-04-17T04:17:05.616Z,1.46
2023-04-17T04:18:05.768Z,0.99
2023-04-17T04:19:05.755Z,0.99
2023-04-17T04:20:05.829Z,0.66
2023-04-17T04:21:05.913Z,0.95
2023-04-17T04:22:06.964Z,1.58
2023-04-17T04:23:06.037Z,1.04
2023-04-17T04:24:06.092Z,0.97
2023-04-17T04:25:06.146Z,0.89
2023-04-17T04:26:06.210Z,0.98
2023-04-17T04:27:06.312Z,0.88
2023-04-17T04:28:06.413Z,0.75
2023-04-17T04:29:06.484Z,0.61
2023-04-17T04:30:06.562Z,0.83
2023-04-17T04:31:06.643Z,0.75
2023-04-17T04:32:06.713Z,0.93
2023-04-17T04:33:06.854Z,0.65
2023-04-17T04:34:06.870Z,0.93
2023-04-17T04:35:06.921Z,0.93
2023-04-17T04:36:06.964Z,0.83
2023-04-17T04:37:07.023Z,0.91
2023-04-17T04:38:07.073Z,1.20
2023-04-17T04:39:07.117Z,0.91
2023-04-17T04:40:07.170Z,0.76
2023-04-17T04:41:07.259Z,0.72
2023-04-17T04:42:07.311Z,0.82
2023-04-17T04:43:07.388Z,0.90
2023-04-17T04:44:07.439Z,1.00
2023-04-17T04:45:07.499Z,0.97
2023-04-17T04:46:07.558Z,1.01
2023-04-17T04:47:07.677Z,0.63
2023-04-17T04:48:07.747Z,1.08
2023-04-17T04:49:07.735Z,0.90
2023-04-17T04:50:07.770Z,1.06
2023-04-17T04:51:07.816Z,0.98
2023-04-17T04:52:07.881Z,1.32
2023-04-17T04:53:07.946Z,1.13
2023-04-17T04:54:07.978Z,1.29
2023-04-17T04:55:08.061Z,1.06
2023-04-17T04:56:08.090Z,1.45
2023-04-17T04:57:08.150Z,0.92
2023-04-17T04:58:08.202Z,1.15
2023-04-17T04:59:08.237Z,1.09
2023-04-17T05:00:08.296Z,1.03
2023-04-17T05:01:08.464Z,0.95
2023-04-17T05:02:08.486Z,0.95
2023-04-17T05:03:08.699Z,1.54
2023-04-17T05:04:08.599Z,1.23
2023-04-17T05:05:08.704Z,1.16
2023-04-17T05:06:08.647Z,1.29
2023-04-17T05:07:08.693Z,1.07
2023-04-17T05:08:08.749Z,1.17
2023-04-17T05:09:08.843Z,1.11
2023-04-17T05:10:08.915Z,0.74
2023-04-17T05:11:08.956Z,0.60
2023-04-17T05:12:09.018Z,0.93
2023-04-17T05:13:09.069Z,1.32
2023-04-17T05:14:09.135Z,0.91
2023-04-17T05:15:09.195Z,0.74
2023-04-17T05:16:09.275Z,1.31
2023-04-17T05:17:09.304Z,1.11
2023-04-17T05:18:09.349Z,1.00
2023-04-17T05:19:09.638Z,0.83
2023-04-17T05:20:09.461Z,0.99
2023-04-17T05:21:09.500Z,0.88
2023-04-17T05:22:09.560Z,0.81
2023-04-17T05:23:09.634Z,0.89
2023-04-17T05:24:09.658Z,0.96
2023-04-17T05:25:09.724Z,0.82
2023-04-17T05:26:09.796Z,0.97
2023-04-17T05:27:09.832Z,0.66
2023-04-17T05:28:09.912Z,0.75
2023-04-17T05:29:10.193Z,0.79
2023-04-17T05:30:10.018Z,0.82
2023-04-17T05:31:10.129Z,0.85
2023-04-17T05:32:10.081Z,0.99
2023-04-17T05:33:10.171Z,0.96
2023-04-17T05:34:10.402Z,1.43
2023-04-17T05:35:10.116Z,1.37
2023-04-17T05:36:10.126Z,1.65
2023-04-17T05:37:10.137Z,1.27
2023-04-17T05:38:10.171Z,1.32
2023-04-17T05:39:10.407Z,1.14
2023-04-17T05:40:10.205Z,1.40
2023-04-17T05:41:10.257Z,1.46
2023-04-17T05:42:10.243Z,1.21
2023-04-17T05:43:10.246Z,0.86
2023-04-17T05:44:10.284Z,0.91
2023-04-17T05:45:10.302Z,1.56
2023-04-17T05:46:10.374Z,1.31
2023-04-17T05:47:10.365Z,1.00
2023-04-17T05:48:10.387Z,1.14
2023-04-17T05:49:10.583Z,1.25
2023-04-17T05:50:10.451Z,1.33
2023-04-17T05:51:10.456Z,1.53
2023-04-17T05:52:10.465Z,1.16
2023-04-17T05:53:10.496Z,1.74
2023-04-17T05:54:10.506Z,1.47
2023-04-17T05:55:10.533Z,1.80
2023-04-17T05:56:10.548Z,2.08
2023-04-17T05:57:10.559Z,2.35
2023-04-17T05:58:23.225Z,1.96
2023-04-17T05:59:11.813Z,2.39
2023-04-17T06:00:10.629Z,2.67
2023-04-17T06:01:10.653Z,2.38
2023-04-17T06:02:10.791Z,3.30
2023-04-17T06:03:10.817Z,2.91
2023-04-17T06:04:10.919Z,2.29
2023-04-17T06:05:10.987Z,2.85
2023-04-17T06:06:10.801Z,2.29
2023-04-17T06:07:10.840Z,1.85
2023-04-17T06:08:10.889Z,1.56
2023-04-17T06:09:11.147Z,1.52
2023-04-17T06:10:10.925Z,2.03
2023-04-17T06:11:10.957Z,2.21
2023-04-17T06:12:10.992Z,1.66
2023-04-17T06:13:10.995Z,1.90
2023-04-17T06:14:11.033Z,1.90
2023-04-17T06:15:11.088Z,1.98
2023-04-17T06:16:11.107Z,1.42
2023-04-17T06:17:11.237Z,1.56
2023-04-17T06:18:11.166Z,1.49
2023-04-17T06:19:11.449Z,1.40
2023-04-17T06:20:11.271Z,1.52
2023-04-17T06:21:11.319Z,1.33
2023-04-17T06:22:11.379Z,1.21
2023-04-17T06:23:11.433Z,1.28
2023-04-17T06:24:11.498Z,1.50
2023-04-17T06:25:11.544Z,1.53
2023-04-17T06:26:11.633Z,1.59
2023-04-17T06:27:11.692Z,1.46
2023-04-17T06:28:11.785Z,1.33
2023-04-17T06:29:12.094Z,1.87
2023-04-17T06:30:11.894Z,1.74
2023-04-17T06:31:11.993Z,1.78
2023-04-17T06:32:12.009Z,1.63
2023-04-17T06:33:12.035Z,1.57
2023-04-17T06:34:12.084Z,1.89
2023-04-17T06:35:12.125Z,1.96
2023-04-17T06:36:12.182Z,1.36
2023-04-17T06:37:12.200Z,1.27
2023-04-17T06:38:12.252Z,1.53
2023-04-17T06:39:12.508Z,1.51
2023-04-17T06:40:12.496Z,1.84
2023-04-17T06:41:12.319Z,1.89
2023-04-17T06:42:12.340Z,1.91
2023-04-17T06:43:12.383Z,1.95
2023-04-17T06:44:12.453Z,1.94
2023-04-17T06:45:12.405Z,1.89
2023-04-17T06:46:12.445Z,1.77
2023-04-17T06:47:12.452Z,1.68
2023-04-17T06:48:12.464Z,1.73
2023-04-17T06:49:12.761Z,1.51
2023-04-17T06:50:12.525Z,1.62
2023-04-17T06:51:12.529Z,1.64
2023-04-17T06:52:12.560Z,1.79
2023-04-17T06:53:12.561Z,1.46
2023-04-17T06:54:12.573Z,1.49
2023-04-17T06:55:12.618Z,1.50
2023-04-17T06:56:12.610Z,1.59
2023-04-17T06:57:12.638Z,1.54
2023-04-17T06:58:12.674Z,1.62
2023-04-17T06:59:12.832Z,1.57
2023-04-17T07:00:12.717Z,1.75
2023-04-17T07:01:12.765Z,1.52
2023-04-17T07:02:12.809Z,1.41
2023-04-17T07:03:12.845Z,1.41
2023-04-17T07:04:12.882Z,1.56
2023-04-17T07:05:12.792Z,1.36
2023-04-17T07:06:12.817Z,1.31
2023-04-17T07:07:12.827Z,1.45
2023-04-17T07:08:12.848Z,1.83
2023-04-17T07:09:13.077Z,1.57
2023-04-17T07:10:12.949Z,1.37
2023-04-17T07:11:12.914Z,1.71
2023-04-17T07:12:12.914Z,0.93
2023-04-17T07:13:12.947Z,1.48
2023-04-17T07:14:13.177Z,1.26
2023-04-17T07:15:12.980Z,1.03
2023-04-17T07:16:12.971Z,1.39
2023-04-17T07:17:12.978Z,1.18
2023-04-17T07:18:13.003Z,1.18
2023-04-17T07:19:13.261Z,1.26
2023-04-17T07:20:13.060Z,1.34
2023-04-17T07:21:13.090Z,1.11
2023-04-17T07:22:13.120Z,1.47
2023-04-17T07:23:13.173Z,1.06
2023-04-17T07:24:13.186Z,1.22
2023-04-17T07:25:13.208Z,1.27
2023-04-17T07:26:13.244Z,1.38
2023-04-17T07:27:13.272Z,1.41
2023-04-17T07:28:13.336Z,1.31
2023-04-17T07:29:13.639Z,1.31
2023-04-17T07:30:13.338Z,1.27
2023-04-17T07:31:13.402Z,0.85
2023-04-17T07:32:13.360Z,1.16
2023-04-17T07:33:13.391Z,0.96
2023-04-17T07:34:13.388Z,1.20
2023-04-17T07:35:13.414Z,1.23
2023-04-17T07:36:13.571Z,1.50
2023-04-17T07:37:13.461Z,1.85
2023-04-17T07:38:13.486Z,1.43
2023-04-17T07:39:13.731Z,2.01
2023-04-17T07:40:13.639Z,1.90
2023-04-17T07:41:13.561Z,1.57
2023-04-17T07:42:13.594Z,1.50
2023-04-17T07:43:13.631Z,1.82
2023-04-17T07:44:13.660Z,1.77
2023-04-17T07:45:13.679Z,2.37
2023-04-17T07:46:13.758Z,2.98
2023-04-17T07:47:13.785Z,1.94
2023-04-17T07:48:13.772Z,1.63
2023-04-17T07:49:14.158Z,1.92
2023-04-17T07:50:13.780Z,2.37
2023-04-17T07:51:13.788Z,1.80
2023-04-17T07:52:13.832Z,1.74
2023-04-17T07:53:13.893Z,1.70
2023-04-17T07:54:13.937Z,1.65
2023-04-17T07:55:14.003Z,1.82
2023-04-17T07:56:14.018Z,1.73
2023-04-17T07:57:14.049Z,1.62
2023-04-17T07:58:14.092Z,1.44
2023-04-17T07:59:14.416Z,1.48
2023-04-17T08:00:14.113Z,1.49
2023-04-17T08:01:14.142Z,1.95
2023-04-17T08:02:14.248Z,1.31
2023-04-17T08:03:14.311Z,1.69
2023-04-17T08:04:14.323Z,1.38
2023-04-17T08:05:14.248Z,1.27
2023-04-17T08:06:14.264Z,1.70
2023-04-17T08:07:14.205Z,1.22
2023-04-17T08:08:14.259Z,1.77
2023-04-17T08:09:14.427Z,1.69
2023-04-17T08:10:14.232Z,1.75
2023-04-17T08:11:14.259Z,1.56
2023-04-17T08:12:14.268Z,2.08
2023-04-17T08:13:14.276Z,1.38
2023-04-17T08:14:14.276Z,1.77
2023-04-17T08:15:14.290Z,2.01
2023-04-17T08:16:14.472Z,1.48
2023-04-17T08:17:14.307Z,1.76
2023-04-17T08:18:14.330Z,1.20
2023-04-17T08:19:14.628Z,2.28
2023-04-17T08:20:14.365Z,1.89
2023-04-17T08:21:14.415Z,2.37
2023-04-17T08:22:14.457Z,1.72
2023-04-17T08:23:14.522Z,1.87
2023-04-17T08:24:14.968Z,2.30
2023-04-17T08:25:14.489Z,1.88
2023-04-17T08:26:14.499Z,2.18
2023-04-17T08:27:14.572Z,1.83
2023-04-17T08:28:14.529Z,1.65
2023-04-17T08:29:14.842Z,1.73
2023-04-17T08:30:17.838Z,1.89
2023-04-17T08:31:14.600Z,1.79
2023-04-17T08:32:15.578Z,1.66
2023-04-17T08:33:14.599Z,1.51
2023-04-17T08:34:15.555Z,1.46
2023-04-17T08:35:14.581Z,1.53
2023-04-17T08:36:14.610Z,1.46
2023-04-17T08:37:14.621Z,1.59
2023-04-17T08:38:14.639Z,1.71
2023-04-17T08:39:15.028Z,1.31
2023-04-17T08:40:14.650Z,1.60
2023-04-17T08:41:14.650Z,1.63
2023-04-17T08:42:18.518Z,1.33
2023-04-17T08:43:14.688Z,1.14
2023-04-17T08:44:14.697Z,1.46
2023-04-17T08:45:14.746Z,1.43
2023-04-17T08:46:14.779Z,1.37
2023-04-17T08:47:14.772Z,1.33
2023-04-17T08:48:14.798Z,1.38
2023-04-17T08:49:14.842Z,1.49
2023-04-17T08:50:14.801Z,1.46
2023-04-17T08:51:14.809Z,1.72
2023-04-17T08:52:14.802Z,1.67
2023-04-17T08:53:14.877Z,1.11
2023-04-17T08:54:14.844Z,1.26
2023-04-17T08:55:14.850Z,1.13
2023-04-17T08:56:14.857Z,1.41
2023-04-17T08:57:14.877Z,1.01
2023-04-17T08:58:14.883Z,1.08
2023-04-17T08:59:14.904Z,1.47
2023-04-17T09:00:14.935Z,1.17
2023-04-17T09:01:14.954Z,1.05
2023-04-17T09:02:15.131Z,1.04
2023-04-17T09:03:15.058Z,1.55
2023-04-17T09:04:15.246Z,1.31
2023-04-17T09:05:14.998Z,1.04
2023-04-17T09:06:14.995Z,0.85
2023-04-17T09:07:15.026Z,1.46
2023-04-17T09:08:15.076Z,1.10
2023-04-17T09:09:15.085Z,1.08
2023-04-17T09:10:15.105Z,1.33
2023-04-17T09:11:15.114Z,1.28
2023-04-17T09:12:15.145Z,1.15
2023-04-17T09:13:15.154Z,1.23
2023-04-17T09:14:15.170Z,1.23
2023-04-17T09:15:15.203Z,1.44
2023-04-17T09:16:15.284Z,1.23
2023-04-17T09:17:15.228Z,1.35
2023-04-17T09:18:15.300Z,1.07
2023-04-17T09:19:15.355Z,1.46
2023-04-17T09:20:15.406Z,1.36
2023-04-17T09:21:15.472Z,1.47
2023-04-17T09:22:15.551Z,1.27
2023-04-17T09:23:15.643Z,1.13
2023-04-17T09:24:15.720Z,1.08
2023-04-17T09:25:15.784Z,1.23
2023-04-17T09:26:15.851Z,1.44
2023-04-17T09:27:15.907Z,1.44
2023-04-17T09:28:15.972Z,1.21
2023-04-17T09:29:16.339Z,1.59
2023-04-17T09:30:16.068Z,1.55
2023-04-17T09:31:16.212Z,1.50
2023-04-17T09:32:16.348Z,1.67
2023-04-17T09:33:16.341Z,1.57
2023-04-17T09:34:16.641Z,1.30
2023-04-17T09:35:16.545Z,1.24
2023-04-17T09:36:16.666Z,1.07
2023-04-17T09:37:16.668Z,1.67
2023-04-17T09:38:16.729Z,1.47
2023-04-17T09:39:16.742Z,1.09
2023-04-17T09:40:16.781Z,1.18
2023-04-17T09:41:16.782Z,1.08
2023-04-17T09:42:16.787Z,1.07
2023-04-17T09:43:16.802Z,1.26
2023-04-17T09:44:16.833Z,1.21
2023-04-17T09:45:16.827Z,3.67
2023-04-17T09:46:16.836Z,1.78
2023-04-17T09:47:16.844Z,1.94
2023-04-17T09:48:16.888Z,1.43
2023-04-17T09:49:17.025Z,1.44
2023-04-17T09:50:17.033Z,1.58
2023-04-17T09:51:17.098Z,1.60
2023-04-17T09:52:17.174Z,2.18
2023-04-17T09:53:17.234Z,1.95
2023-04-17T09:54:17.231Z,1.66
2023-04-17T09:55:17.266Z,1.71
2023-04-17T09:56:17.233Z,1.69
2023-04-17T09:57:17.254Z,1.50
2023-04-17T09:58:17.260Z,1.62
2023-04-17T09:59:17.280Z,1.56
2023-04-17T10:00:17.321Z,1.80
2023-04-17T10:01:17.341Z,1.44
2023-04-17T10:02:17.389Z,1.65
2023-04-17T10:03:17.528Z,1.45
2023-04-17T10:04:17.943Z,1.17
2023-04-17T10:05:17.406Z,1.67
2023-04-17T10:06:17.459Z,1.43
2023-04-17T10:07:17.521Z,1.69
2023-04-17T10:08:17.513Z,1.52
2023-04-17T10:09:17.537Z,1.54
2023-04-17T10:10:17.586Z,0.97
2023-04-17T10:11:17.558Z,1.29
2023-04-17T10:12:17.616Z,1.69
2023-04-17T10:13:17.610Z,1.30
2023-04-17T10:14:17.593Z,1.51
2023-04-17T10:15:17.603Z,1.26
2023-04-17T10:16:17.617Z,1.18
2023-04-17T10:17:17.612Z,1.21
2023-04-17T10:18:17.675Z,1.52
2023-04-17T10:19:17.753Z,1.50
2023-04-17T10:20:17.873Z,1.63
2023-04-17T10:21:17.856Z,1.57
2023-04-17T10:22:17.831Z,1.46
2023-04-17T10:23:17.840Z,1.51
2023-04-17T10:24:17.981Z,1.74
2023-04-17T10:25:17.869Z,1.34
2023-04-17T10:26:17.889Z,1.16
2023-04-17T10:27:17.880Z,1.32
2023-04-17T10:28:17.884Z,1.14
2023-04-17T10:29:17.917Z,1.35
2023-04-17T10:30:17.919Z,1.17
2023-04-17T10:31:18.013Z,1.63
2023-04-17T10:32:18.116Z,1.34
2023-04-17T10:33:18.167Z,1.34
2023-04-17T10:34:18.188Z,1.03
2023-04-17T10:35:18.283Z,1.78
2023-04-17T10:36:18.331Z,1.74
2023-04-17T10:37:18.437Z,1.23
2023-04-17T10:38:18.495Z,1.45
2023-04-17T10:39:18.564Z,1.41
2023-04-17T10:40:18.605Z,1.40
2023-04-17T10:41:18.692Z,1.68
2023-04-17T10:42:18.759Z,1.57
2023-04-17T10:43:18.835Z,1.55
2023-04-17T10:44:18.931Z,5.44
2023-04-17T10:45:18.975Z,1.56
2023-04-17T10:46:19.096Z,1.45
2023-04-17T10:47:19.255Z,1.62
2023-04-17T10:48:19.253Z,2.22
2023-04-17T10:49:19.270Z,1.86
2023-04-17T10:50:19.338Z,1.72
2023-04-17T10:51:19.412Z,2.13
2023-04-17T10:52:19.409Z,1.82
2023-04-17T10:53:19.414Z,1.41
2023-04-17T10:54:19.429Z,1.79
2023-04-17T10:55:19.409Z,2.13
2023-04-17T10:56:19.418Z,1.85
2023-04-17T10:57:19.423Z,1.58
2023-04-17T10:58:19.448Z,1.19
2023-04-17T10:59:19.455Z,1.34
2023-04-17T11:00:19.474Z,1.49
2023-04-17T11:01:19.516Z,1.69
2023-04-17T11:02:19.603Z,1.54
2023-04-17T11:03:19.714Z,1.42
2023-04-17T11:04:19.764Z,1.68
2023-04-17T11:05:19.756Z,2.40
2023-04-17T11:06:19.899Z,1.22
2023-04-17T11:07:19.938Z,1.12
2023-04-17T11:08:19.969Z,1.36
2023-04-17T11:09:20.037Z,1.40
2023-04-17T11:10:20.102Z,1.24
2023-04-17T11:11:26.968Z,1.24
2023-04-17T11:12:21.173Z,1.49
2023-04-17T11:13:20.194Z,1.45
2023-04-17T11:14:20.240Z,1.27
2023-04-17T11:15:20.245Z,1.09
2023-04-17T11:16:20.253Z,1.46
2023-04-17T11:17:20.309Z,0.86
2023-04-17T11:18:20.254Z,1.08
2023-04-17T11:19:20.274Z,1.37
2023-04-17T11:20:20.275Z,0.98
2023-04-17T11:21:20.307Z,1.51
2023-04-17T11:22:20.323Z,1.06
2023-04-17T11:23:20.412Z,1.43
2023-04-17T11:24:20.466Z,1.20
2023-04-17T11:25:20.540Z,1.25
2023-04-17T11:26:20.601Z,1.40
2023-04-17T11:27:20.670Z,1.41
2023-04-17T11:28:20.735Z,1.30
2023-04-17T11:29:20.808Z,1.27
2023-04-17T11:30:20.887Z,1.35
2023-04-17T11:31:21.620Z,1.29
2023-04-17T11:32:21.038Z,1.49
2023-04-17T11:33:21.083Z,1.12
2023-04-17T11:34:21.136Z,1.23
2023-04-17T11:35:21.202Z,1.02
2023-04-17T11:36:21.367Z,1.10
2023-04-17T11:37:21.335Z,1.09
2023-04-17T11:38:21.899Z,1.46
2023-04-17T11:39:21.493Z,1.18
2023-04-17T11:40:21.574Z,0.99
2023-04-17T11:41:21.633Z,1.11
2023-04-17T11:42:21.706Z,1.11
2023-04-17T11:43:21.774Z,1.20
2023-04-17T11:44:21.876Z,1.17
2023-04-17T11:45:21.914Z,1.29
2023-04-17T11:46:22.008Z,1.23
2023-04-17T11:47:22.127Z,1.70
2023-04-17T11:48:22.164Z,1.09
2023-04-17T11:49:22.230Z,1.18
2023-04-17T11:50:22.314Z,1.26
2023-04-17T11:51:22.384Z,1.54
2023-04-17T11:52:22.445Z,1.03
2023-04-17T11:53:23.238Z,1.63
2023-04-17T11:54:22.573Z,1.51
2023-04-17T11:55:22.656Z,1.33
2023-04-17T11:56:22.718Z,1.28
2023-04-17T11:57:22.796Z,1.47
2023-04-17T11:58:22.861Z,1.05
2023-04-17T11:59:22.924Z,1.32
2023-04-17T12:00:22.982Z,1.72
2023-04-17T12:01:23.090Z,1.46
2023-04-17T12:02:23.233Z,1.82
2023-04-17T12:03:23.278Z,1.07
2023-04-17T12:04:23.335Z,1.46
2023-04-17T12:05:23.434Z,1.70
2023-04-17T12:06:23.405Z,1.30
2023-04-17T12:07:23.487Z,1.18
2023-04-17T12:08:23.544Z,1.34
2023-04-17T12:09:23.623Z,1.20
2023-04-17T12:10:23.682Z,1.09
2023-04-17T12:11:23.778Z,0.94
2023-04-17T12:12:23.830Z,1.12
2023-04-17T12:13:23.906Z,1.34
2023-04-17T12:14:26.216Z,1.26
2023-04-17T12:15:24.041Z,1.02
2023-04-17T12:16:24.165Z,1.01
2023-04-17T12:17:24.303Z,1.20
2023-04-17T12:18:24.267Z,1.30
2023-04-17T12:19:24.346Z,1.04
2023-04-17T12:20:26.577Z,1.26
2023-04-17T12:21:24.437Z,1.09
2023-04-17T12:22:24.468Z,1.40
2023-04-17T12:23:24.524Z,1.12
2023-04-17T12:24:24.593Z,1.12
2023-04-17T12:25:24.674Z,1.36
2023-04-17T12:26:24.752Z,1.27
2023-04-17T12:27:24.799Z,0.91
2023-04-17T12:28:24.875Z,1.22
2023-04-17T12:29:36.874Z,1.23
2023-04-17T12:30:25.962Z,1.57
2023-04-17T12:31:24.986Z,1.29
2023-04-17T12:32:24.999Z,1.16
2023-04-17T12:33:24.994Z,1.12
2023-04-17T12:34:26.602Z,0.71
2023-04-17T12:35:25.031Z,1.14
2023-04-17T12:36:25.078Z,1.16
2023-04-17T12:37:25.056Z,1.34
2023-04-17T12:38:25.072Z,0.73
2023-04-17T12:39:25.201Z,1.17
2023-04-17T12:40:25.110Z,1.01
2023-04-17T12:41:25.134Z,1.20
2023-04-17T12:42:25.882Z,1.19
2023-04-17T12:43:25.139Z,1.31
2023-04-17T12:44:25.175Z,0.74
2023-04-17T12:45:25.236Z,1.29
2023-04-17T12:46:25.232Z,1.08
2023-04-17T12:47:25.269Z,0.92
2023-04-17T12:48:25.240Z,0.95
2023-04-17T12:49:25.258Z,1.26
2023-04-17T12:50:25.259Z,0.98
2023-04-17T12:51:25.279Z,0.86
2023-04-17T12:52:25.289Z,1.13
2023-04-17T12:53:25.287Z,0.87
2023-04-17T12:54:25.320Z,0.93
2023-04-17T12:55:25.357Z,1.13
2023-04-17T12:56:25.339Z,1.18
2023-04-17T12:57:25.368Z,1.15
2023-04-17T12:58:25.443Z,1.06
2023-04-17T12:59:25.507Z,0.86
2023-04-17T13:00:25.579Z,0.92
2023-04-17T13:01:25.668Z,1.28
2023-04-17T13:02:25.867Z,0.97
2023-04-17T13:03:25.904Z,1.23
2023-04-17T13:04:25.930Z,1.41
2023-04-17T13:05:25.892Z,0.97
2023-04-17T13:06:25.962Z,1.07
2023-04-17T13:07:26.025Z,1.22
2023-04-17T13:08:26.104Z,0.78
2023-04-17T13:09:26.183Z,0.86
2023-04-17T13:10:26.268Z,0.68
2023-04-17T13:11:26.310Z,0.82
2023-04-17T13:12:26.351Z,1.07
2023-04-17T13:13:26.412Z,1.22
2023-04-17T13:14:26.478Z,1.09
2023-04-17T13:15:26.565Z,0.82
2023-04-17T13:16:26.634Z,1.13
2023-04-17T13:17:26.739Z,1.15
2023-04-17T13:18:26.754Z,1.46
2023-04-17T13:19:26.800Z,1.09